Latest Weather Observations for Coonabarabran Airport

IDN60801

Issued at 10:35 pm EST Wednesday 23 April 2014 (issued every 30 minutes, with the page automatically refreshed every 10 minutes)

About weather observations | Map of weather stations | Latest weather observations for NSW | Other Formats
Station Details ID: 064017 Name: COONABARABRAN AIRPORT AWS Lat: -31.33 Lon: 149.27 Height: 645.0 m
Data from the previous 72 hours. | See also: Recent months for locations in New South Wales
Date/Time
EST
Temp
°C
App
Temp
°C
Dew
Point
Rel
Hum
%
Delta-T
°C
Wind Press
QNH
hPa
Press
MSL
hPa
Rain
since 9 am
mm
Dir
 
Spd
km/h
Gust
km/h
Spd
kts
Gust
kts
23/10:30pm 16.2 13.0 2.9 41 6.2 W 9 11 5 6 1018.0 - 0.0
23/10:00pm 16.8 14.4 2.0 37 6.9 SSW 4 13 2 7 1018.1 1016.0 0.0
23/09:30pm 17.5 14.7 1.9 35 7.3 SW 6 13 3 7 1018.2 - 0.0
23/09:00pm 18.5 15.0 1.5 32 7.9 S 9 13 5 7 1018.2 1016.1 0.0
23/08:30pm 18.5 14.7 1.9 33 7.8 S 11 13 6 7 1018.2 - 0.0
23/08:00pm 19.2 15.8 2.1 32 8.1 S 9 11 5 6 1018.1 1016.0 0.0
23/07:30pm 19.7 16.3 2.1 31 8.4 S 9 11 5 6 1018.0 - 0.0
23/07:00pm 19.7 16.3 2.1 31 8.4 SSW 9 11 5 6 1017.9 1015.8 0.0
23/06:30pm 20.0 16.8 2.8 32 8.3 SSW 9 11 5 6 1017.9 - 0.0
23/06:00pm 20.4 17.2 3.2 32 8.4 S 9 11 5 6 1017.7 1015.6 0.0
23/05:30pm 21.6 18.7 2.8 29 9.2 SW 7 13 4 7 1017.5 - 0.0
23/05:00pm 23.4 20.8 4.4 29 9.7 WNW 7 15 4 8 1017.2 1015.2 0.0
23/04:30pm 24.3 21.1 3.0 25 10.6 WNW 9 15 5 8 1017.0 - 0.0
23/04:00pm 24.5 20.7 2.0 23 11.0 W 11 17 6 9 1016.8 1014.7 0.0
23/03:30pm 24.6 19.8 2.7 24 10.9 WNW 17 24 9 13 1016.9 - 0.0
23/03:00pm 24.8 20.3 2.3 23 11.1 WNW 15 26 8 14 1017.0 1014.9 0.0
23/02:30pm 24.6 19.6 1.5 22 11.3 WNW 17 26 9 14 1017.0 - 0.0
23/02:00pm 24.4 19.4 1.3 22 11.2 NNW 17 24 9 13 1017.1 1015.0 0.0
23/01:30pm 24.5 18.9 1.4 22 11.2 NW 20 26 11 14 1017.3 - 0.0
23/01:00pm 24.9 19.7 3.5 25 10.8 NW 20 30 11 16 1017.7 1015.6 0.0
23/12:30pm 24.2 19.9 5.1 29 9.9 NW 17 32 9 17 1018.1 - 0.0
23/12:00pm 23.8 19.9 5.2 30 9.6 NW 15 24 8 13 1018.6 1016.6 0.0
23/11:30am 22.7 18.8 7.3 37 8.2 NNW 17 22 9 12 1019.0 - 0.0
23/11:00am 22.5 19.2 7.9 39 7.9 NW 15 20 8 11 1019.5 1017.4 0.0
23/10:30am 21.4 18.7 9.0 45 6.8 NNW 13 19 7 10 1019.6 - 0.0
23/10:00am 20.8 17.8 10.6 52 5.7 NNW 17 22 9 12 1019.8 1017.7 0.0
23/09:30am 19.3 16.1 10.0 55 5.1 NNW 17 22 9 12 1019.8 - 0.0
23/09:00am 18.7 15.9 10.0 57 4.8 NNW 15 24 8 13 1020.0 1018.0 0.0
23/08:30am 17.4 14.0 9.1 58 4.5 N 17 20 9 11 1019.8 - 0.0
23/08:00am 16.1 13.1 7.8 58 4.3 N 13 19 7 10 1019.7 1017.6 0.0
23/07:30am 15.5 13.2 7.3 58 4.2 NNW 9 13 5 7 1019.6 - 0.0
23/07:00am 15.0 11.7 6.3 56 4.3 N 13 17 7 9 1019.2 1017.1 0.0
23/06:30am 14.0 10.8 4.9 54 4.4 N 11 15 6 8 1019.0 - 0.0
23/06:00am 14.0 10.8 4.9 54 4.4 N 11 13 6 7 1018.8 1016.8 0.0
23/05:30am 13.7 10.7 4.3 53 4.5 N 9 11 5 6 1018.8 - 0.0
23/05:00am 14.9 11.3 4.9 51 4.8 NE 13 15 7 8 1018.7 1016.7 0.0
23/04:30am 14.3 11.4 4.6 52 4.7 NNE 9 13 5 7 1018.8 - 0.0
23/04:00am 14.7 11.8 4.7 51 4.8 NE 9 11 5 6 1018.6 1016.6 0.0
23/03:30am 14.4 11.5 4.7 52 4.7 NE 9 17 5 9 1018.7 - 0.0
23/03:00am 13.8 12.6 4.7 54 4.4 CALM 0 0 0 0 1018.6 1016.6 0.0
23/02:30am 13.9 12.7 4.8 54 4.4 CALM 0 0 0 0 1018.7 - 0.0
23/02:00am 14.1 11.2 4.9 54 4.4 WSW 9 15 5 8 1018.9 1016.9 0.0
23/01:30am 13.7 10.9 5.3 57 4.1 WSW 9 11 5 6 1019.2 - 0.0
23/01:00am 14.5 11.7 5.3 54 4.5 SSW 9 11 5 6 1019.4 1017.3 0.0
23/12:30am 14.0 11.8 5.4 56 4.2 SE 6 11 3 6 1019.5 - 0.0
23/12:00am 13.9 11.1 5.3 56 4.2 SW 9 15 5 8 1019.6 1017.5 0.0
 
Date/Time
EST
Temp
°C
App
Temp
°C
Dew
Point
Rel
Hum
%
Delta-T
°C
Wind Press
QNH
hPa
Press
MSL
hPa
Rain
since 9 am
mm
Dir
 
Spd
km/h
Gust
km/h
Spd
kts
Gust
kts
22/11:30pm 13.6 10.5 5.5 58 3.9 SSW 11 13 6 7 1019.7 - 0.0
22/11:00pm 14.1 10.6 5.5 56 4.2 SW 13 17 7 9 1019.9 1017.8 0.0
22/10:30pm 14.1 10.6 5.5 56 4.2 SSW 13 15 7 8 1019.9 - 0.0
22/10:00pm 14.4 11.0 5.7 56 4.3 SSW 13 17 7 9 1019.9 1017.8 0.0
22/09:30pm 14.3 10.5 5.7 56 4.2 S 15 15 8 8 1019.9 - 0.0
22/09:00pm 15.1 11.3 5.6 53 4.7 S 15 17 8 9 1019.9 1017.8 0.0
22/08:30pm 15.4 11.6 5.6 52 4.8 SSW 15 17 8 9 1019.6 - 0.0
22/08:00pm 15.6 12.2 5.8 52 4.9 S 13 15 7 8 1019.6 1017.5 0.0
22/07:30pm 16.2 12.8 6.1 51 5.1 S 13 15 7 8 1019.5 - 0.0
22/07:00pm 16.9 13.5 6.1 49 5.4 S 13 17 7 9 1019.2 1017.1 0.0
22/06:30pm 17.2 13.8 6.1 48 5.6 S 13 17 7 9 1019.0 - 0.0
22/06:00pm 17.2 13.8 6.1 48 5.6 S 13 15 7 8 1018.7 1016.7 0.0
22/05:30pm 18.4 15.4 5.9 44 6.3 SSW 11 15 6 8 1018.6 - 0.0
22/05:00pm 20.5 17.6 6.4 40 7.3 SSW 11 15 6 8 1018.4 1016.3 0.0
22/04:30pm 21.4 17.6 5.7 36 8.1 SSW 15 20 8 11 1018.4 - 0.0
22/04:00pm 24.0 21.7 7.6 35 8.9 W 9 13 5 7 1018.3 1016.2 0.0
22/03:30pm 23.9 19.3 5.8 31 9.5 NW 19 26 10 14 1018.3 - 0.0
22/03:00pm 24.3 19.8 6.1 31 9.6 W 19 26 10 14 1018.3 1016.2 0.0
22/02:30pm 24.0 19.2 5.8 31 9.6 WNW 20 28 11 15 1018.5 - 0.0
22/02:00pm 24.2 19.7 6.9 33 9.3 WNW 20 28 11 15 1018.7 1016.7 0.0
22/01:30pm 23.3 18.8 6.1 33 9.0 WNW 19 26 10 14 1018.9 - 0.0
22/01:00pm 22.9 18.1 5.8 33 8.9 NW 20 28 11 15 1019.4 1017.3 0.0
22/12:30pm 23.0 18.5 6.3 34 8.8 NW 19 28 10 15 1019.8 - 0.0
22/12:00pm 22.0 17.6 5.0 33 8.7 NNW 17 28 9 15 1020.3 1018.3 0.0
22/11:30am 21.8 17.6 5.7 35 8.3 NW 17 20 9 11 1020.8 - 0.0
22/11:00am 20.3 15.3 4.8 36 7.8 NNW 20 26 11 14 1021.2 1019.1 0.0
22/10:30am 19.7 15.0 5.0 38 7.4 NNW 19 24 10 13 1021.7 - 0.0
22/10:00am 18.3 14.6 6.2 45 6.2 N 15 20 8 11 1021.7 1019.7 0.0
22/09:30am 16.9 12.2 5.2 46 5.8 N 19 24 10 13 1021.7 - 0.0
22/09:00am 15.9 12.0 5.5 50 5.1 N 15 20 8 11 1021.6 1019.6 0.0
22/08:30am 16.1 13.2 4.5 46 5.6 N 9 15 5 8 1021.3 - 0.0
22/08:00am 14.9 12.0 4.6 50 5.0 NW 9 17 5 9 1021.2 1019.1 0.0
22/07:30am 12.7 9.2 3.6 54 4.2 N 11 15 6 8 1021.0 - 0.0
22/07:00am 12.3 8.5 3.8 56 3.9 N 13 15 7 8 1021.0 1018.9 0.0
22/06:30am 11.6 7.7 3.6 58 3.7 N 13 15 7 8 1020.6 - 0.0
22/06:00am 11.5 8.2 4.3 61 3.4 N 11 13 6 7 1020.3 1018.3 0.0
22/05:30am 11.4 8.5 4.4 62 3.3 N 9 11 5 6 1020.3 - 0.0
22/05:00am 11.3 8.4 4.7 64 3.1 N 9 13 5 7 1020.1 1018.1 0.0
22/04:30am 11.3 8.8 4.7 64 3.1 NNE 7 15 4 8 1019.8 - 0.0
22/04:00am 11.9 9.5 5.3 64 3.2 N 7 15 4 8 1019.9 1017.8 0.0
22/03:30am 11.2 9.0 5.1 66 2.9 NNW 6 19 3 10 1019.9 - 0.0
22/03:00am 11.0 9.5 4.9 66 2.9 NW 2 6 1 3 1019.9 1017.8 0.0
22/02:30am 11.2 10.1 4.9 65 3.0 CALM 0 0 0 0 1020.2 - 0.0
22/02:00am 12.6 10.2 5.1 60 3.6 S 7 15 4 8 1020.3 1018.3 0.0
22/01:30am 11.8 8.9 4.5 61 3.4 SW 9 20 5 11 1020.6 - 0.0
22/01:00am 12.2 9.9 4.9 61 3.5 WSW 6 15 3 8 1021.0 1018.9 0.0
22/12:30am 11.6 8.8 5.3 65 3.0 WSW 9 15 5 8 1021.1 - 0.0
22/12:00am 12.2 9.4 5.1 62 3.4 SSW 9 13 5 7 1021.0 1018.9 0.0
 
Date/Time
EST
Temp
°C
App
Temp
°C
Dew
Point
Rel
Hum
%
Delta-T
°C
Wind Press
QNH
hPa
Press
MSL
hPa
Rain
since 9 am
mm
Dir
 
Spd
km/h
Gust
km/h
Spd
kts
Gust
kts
21/11:30pm 12.6 9.9 5.5 62 3.4 SSW 9 9 5 5 1021.0 - 0.0
21/11:00pm 12.1 8.9 5.3 63 3.3 SSW 11 11 6 6 1021.3 1019.2 0.0
21/10:30pm 12.0 8.4 5.2 63 3.3 SSW 13 13 7 7 1021.5 - 0.0
21/10:00pm 11.5 8.0 5.4 66 2.9 S 13 15 7 8 1021.4 1019.4 0.0
21/09:30pm 12.5 9.6 4.7 59 3.7 WSW 9 11 5 6 1021.6 - 0.0
21/09:00pm 13.4 10.7 5.6 59 3.8 SW 9 11 5 6 1021.5 1019.5 0.0
21/08:30pm 13.8 10.9 4.9 55 4.3 SW 9 11 5 6 1021.4 - 0.0
21/08:00pm 14.5 11.6 4.8 52 4.7 S 9 11 5 6 1021.3 1019.2 0.0
21/07:30pm 14.4 11.6 5.2 54 4.5 S 9 11 5 6 1021.2 - 0.0
21/07:00pm 14.5 11.8 5.6 55 4.4 SSE 9 11 5 6 1021.1 1019.0 0.0
21/06:30pm 14.7 12.1 6.0 56 4.3 S 9 11 5 6 1020.9 - 0.0
21/06:00pm 15.3 12.6 5.8 53 4.7 SSE 9 11 5 6 1020.5 1018.5 0.0
21/05:30pm 15.9 13.2 5.5 50 5.2 SE 9 11 5 6 1020.2 - 0.0
21/05:00pm 16.7 14.2 6.5 51 5.2 ESE 9 11 5 6 1019.9 1017.8 0.0
21/04:30pm 17.3 14.5 6.8 50 5.4 ESE 11 13 6 7 1019.8 - 0.0
21/04:00pm 18.8 16.2 6.3 44 6.4 SE 9 13 5 7 1019.8 1017.7 0.0
21/03:30pm 19.5 17.5 6.9 44 6.6 E 7 13 4 7 1019.7 - 0.0
21/03:00pm 19.5 17.2 5.6 40 7.1 NE 7 11 4 6 1019.9 1017.8 0.0
21/02:30pm 19.0 16.8 6.1 43 6.6 E 7 13 4 7 1019.9 - 0.0
21/02:00pm 18.6 16.2 5.1 41 6.7 SSW 7 13 4 7 1020.0 1018.0 0.0
21/01:30pm 18.5 16.2 5.7 43 6.5 S 7 13 4 7 1020.2 - 0.0
21/01:00pm 17.7 14.8 4.6 42 6.4 S 9 15 5 8 1020.5 1018.5 0.0
21/12:30pm 17.8 15.6 6.0 46 6.0 SW 7 13 4 7 1021.1 - 0.0
21/12:00pm 16.5 13.6 4.9 46 5.7 SE 9 17 5 9 1021.6 1019.6 0.0
21/11:30am 16.2 13.4 5.2 48 5.4 S 9 15 5 8 1022.2 - 0.0
21/11:00am 15.4 12.6 5.3 51 4.9 SW 9 15 5 8 1022.6 1020.5 0.0
21/10:30am 15.1 11.9 5.0 51 4.9 S 11 17 6 9 1022.7 - 0.0
21/10:00am 14.2 11.2 4.2 51 4.7 S 9 15 5 8 1022.8 1020.8 0.0
21/09:30am 13.5 10.9 4.4 54 4.3 SSE 7 15 4 8 1022.9 - 0.0
21/09:00am 13.1 10.2 4.8 57 4.0 ESE 9 15 5 8 1022.7 1020.7 0.0
21/08:30am 12.4 9.5 4.9 60 3.6 ESE 9 13 5 7 1022.6 - 0.0
21/08:00am 11.5 8.8 5.4 66 2.9 SE 9 20 5 11 1022.1 1020.1 0.0
21/07:30am 10.3 7.4 4.7 68 2.6 SSE 9 17 5 9 1021.7 - 0.0
21/07:00am 8.8 5.8 4.0 72 2.2 S 9 11 5 6 1021.4 1019.4 0.0
21/06:30am 8.4 4.9 3.7 72 2.1 S 11 11 6 6 1021.0 - 0.0
21/06:00am 8.1 4.6 3.6 73 2.0 SSW 11 11 6 6 1020.9 1018.8 0.0
21/05:30am 7.9 4.4 3.6 74 1.9 SSW 11 13 6 7 1020.5 - 0.0
21/05:00am 8.0 4.5 3.5 73 2.0 SSW 11 13 6 7 1020.3 1018.3 0.0
21/04:30am 8.1 4.5 3.2 71 2.2 SSW 11 13 6 7 1020.2 - 0.0
21/04:00am 8.6 5.4 3.2 69 2.4 SSW 9 13 5 7 1019.9 1017.8 0.0
21/03:30am 8.8 5.6 3.2 68 2.5 SSW 9 13 5 7 1019.7 - 0.0
21/03:00am 8.7 5.1 2.9 67 2.6 SSW 11 11 6 6 1019.7 1017.6 0.0
21/02:30am 8.9 5.3 3.1 67 2.6 SSW 11 13 6 7 1019.9 - 0.0
21/02:00am 9.2 6.1 3.4 67 2.6 SSW 9 13 5 7 1020.1 1018.1 0.0
21/01:30am 9.3 5.8 3.3 66 2.7 SW 11 13 6 7 1020.1 - 0.0
21/01:00am 9.6 5.7 3.4 65 2.8 SW 13 15 7 8 1020.2 1018.2 0.0
21/12:30am 9.8 5.9 3.3 64 2.9 SW 13 17 7 9 1020.2 - 0.0
21/12:00am 9.8 5.9 3.3 64 2.9 SW 13 15 7 8 1020.3 1018.3 0.0
 
Date/Time
EST
Temp
°C
App
Temp
°C
Dew
Point
Rel
Hum
%
Delta-T
°C
Wind Press
QNH
hPa
Press
MSL
hPa
Rain
since 9 am
mm
Dir
 
Spd
km/h
Gust
km/h
Spd
kts
Gust
kts
20/11:30pm 10.0 5.7 3.3 63 3.0 SW 15 19 8 10 1020.4 - 0.0
20/11:00pm 10.5 6.2 3.3 61 3.3 SW 15 20 8 11 1020.4 1018.4 0.0

Other Formats:

Comma delimited format used in spreadsheet applications
http://www.bom.gov.au/fwo/IDN60801/IDN60801.95728.axf

JavaScript Object Notation format (JSON) in row-major order
http://www.bom.gov.au/fwo/IDN60801/IDN60801.95728.json